createdAt,value
2018-03-24T00:01:33.973Z,97330.39
2018-03-24T00:04:03.792Z,97330.75
2018-03-24T00:06:33.699Z,97332.03
2018-03-24T00:09:03.279Z,97326.33
2018-03-24T00:11:33.227Z,97326.13
2018-03-24T00:14:02.918Z,97333.75
2018-03-24T00:16:33.214Z,97334.32
2018-03-24T00:19:03.059Z,97330.25
2018-03-24T00:21:32.965Z,97330.61
2018-03-24T00:24:02.785Z,97324.99
2018-03-24T00:26:32.671Z,97326.16
2018-03-24T00:29:02.561Z,97324.02
2018-03-24T00:31:32.433Z,97323.66
2018-03-24T00:34:02.503Z,97314.06
2018-03-24T00:36:32.372Z,97320.95
2018-03-24T00:39:02.247Z,97318.70
2018-03-24T00:41:43.290Z,97318.92
2018-03-24T00:44:15.550Z,97323.09
2018-03-24T00:46:45.440Z,97323.31
2018-03-24T00:49:15.374Z,97315.63
2018-03-24T00:51:45.950Z,97317.07
2018-03-24T00:54:15.828Z,97314.88
2018-03-24T00:56:53.937Z,97311.55
2018-03-24T00:59:36.485Z,97317.37
2018-03-24T01:02:23.755Z,97308.59
2018-03-24T01:04:58.688Z,97307.56
2018-03-24T01:07:28.449Z,97308.08
2018-03-24T01:09:58.402Z,97305.28
2018-03-24T01:12:28.381Z,97301.18
2018-03-24T01:14:58.427Z,97300.86
2018-03-24T01:17:29.301Z,97297.39
2018-03-24T01:20:05.867Z,97298.70
2018-03-24T01:22:39.389Z,97298.66
2018-03-24T01:25:09.214Z,97300.69
2018-03-24T01:27:39.133Z,97293.86
2018-03-24T01:30:09.063Z,97293.50
2018-03-24T01:32:38.899Z,97289.76
2018-03-24T01:35:09.430Z,97286.99
2018-03-24T01:37:39.303Z,97291.09
2018-03-24T01:40:09.169Z,97283.73
2018-03-24T01:42:39.035Z,97285.58
2018-03-24T01:45:08.751Z,97284.91
2018-03-24T01:47:38.781Z,97283.80
2018-03-24T01:50:08.610Z,97282.02
2018-03-24T01:52:38.473Z,97281.42
2018-03-24T01:55:08.025Z,97277.79
2018-03-24T01:57:38.232Z,97274.94
2018-03-24T02:00:11.920Z,97274.27
2018-03-24T02:02:43.730Z,97272.34
2018-03-24T02:05:14.235Z,97270.34
2018-03-24T02:07:43.856Z,97270.45
2018-03-24T02:10:13.746Z,97269.63
2018-03-24T02:12:43.708Z,97266.98
2018-03-24T02:15:13.394Z,97264.37
2018-03-24T02:17:43.012Z,97265.70
2018-03-24T02:20:15.534Z,97262.63
2018-03-24T02:22:45.710Z,97257.46
2018-03-24T02:25:16.300Z,97260.62
2018-03-24T02:27:46.112Z,97257.92
2018-03-24T02:30:16.024Z,97257.56
2018-03-24T02:32:47.593Z,97252.44
2018-03-24T02:35:17.501Z,97245.03
2018-03-24T02:37:47.405Z,97243.25
2018-03-24T02:40:17.219Z,97251.66
2018-03-24T02:42:47.393Z,97247.81
2018-03-24T02:45:17.248Z,97244.57
2018-03-24T02:47:47.101Z,97243.88
2018-03-24T02:50:16.948Z,97245.89
2018-03-24T02:52:47.099Z,97241.00
2018-03-24T02:55:17.023Z,97241.96
2018-03-24T02:57:46.910Z,97240.88
2018-03-24T03:00:16.778Z,97240.94
2018-03-24T03:02:46.641Z,97238.56
2018-03-24T03:05:16.244Z,97241.39
2018-03-24T03:07:45.844Z,97238.27
2018-03-24T03:10:15.674Z,97234.55
2018-03-24T03:12:45.497Z,97242.02
2018-03-24T03:15:15.449Z,97233.58
2018-03-24T03:17:45.270Z,97238.13
2018-03-24T03:20:24.115Z,97235.37
2018-03-24T03:22:56.385Z,97229.32
2018-03-24T03:25:26.253Z,97234.28
2018-03-24T03:27:55.924Z,97232.30
2018-03-24T03:33:38.882Z,97232.61
2018-03-24T03:36:17.344Z,97231.38
2018-03-24T03:38:48.401Z,97227.64
2018-03-24T03:41:18.340Z,97223.35
2018-03-24T03:43:48.394Z,97230.24
2018-03-24T03:46:18.308Z,97221.05
2018-03-24T03:48:48.458Z,97218.56
2018-03-24T03:51:18.275Z,97221.41
2018-03-24T03:53:48.212Z,97219.27
2018-03-24T03:56:18.833Z,97212.69
2018-03-24T03:58:48.696Z,97218.67
2018-03-24T04:01:18.573Z,97215.56
2018-03-24T04:03:48.476Z,97214.00
2018-03-24T04:06:18.442Z,97204.95
2018-03-24T04:08:48.428Z,97208.84
2018-03-24T04:11:18.347Z,97203.89
2018-03-24T04:13:48.248Z,97212.84
2018-03-24T04:16:18.173Z,97209.50
2018-03-24T04:18:48.088Z,97208.52
2018-03-24T04:21:18.513Z,97211.50
2018-03-24T04:23:48.407Z,97205.38
2018-03-24T04:26:18.278Z,97206.59
2018-03-24T04:28:52.134Z,97203.78
2018-03-24T04:31:21.978Z,97205.03
2018-03-24T04:33:52.472Z,97208.34
2018-03-24T04:36:22.523Z,97200.23
2018-03-24T04:38:52.439Z,97203.47
2018-03-24T04:41:23.146Z,97198.00
2018-03-24T04:43:53.027Z,97196.83
2018-03-24T04:46:29.761Z,97191.81
2018-03-24T04:49:15.968Z,97196.53
2018-03-24T04:51:48.035Z,97199.14
2018-03-24T04:54:18.153Z,97200.88
2018-03-24T04:56:48.106Z,97199.19
2018-03-24T04:59:17.970Z,97196.06
2018-03-24T05:01:48.194Z,97204.28
2018-03-24T05:04:29.081Z,97206.36
2018-03-24T05:07:00.814Z,97205.06
2018-03-24T05:09:41.194Z,97204.77
2018-03-24T05:12:11.707Z,97201.66
2018-03-24T05:14:41.509Z,97207.07
2018-03-24T05:17:18.437Z,97197.70
2018-03-24T05:19:50.213Z,97204.98
2018-03-24T05:22:20.142Z,97203.55
2018-03-24T05:24:50.101Z,97203.36
2018-03-24T05:27:19.935Z,97209.49
2018-03-24T05:29:50.113Z,97205.73
2018-03-24T05:32:19.909Z,97213.13
2018-03-24T05:34:49.729Z,97206.72
2018-03-24T05:37:19.633Z,97208.84
2018-03-24T05:39:49.532Z,97209.48
2018-03-24T05:42:19.647Z,97210.56
2018-03-24T05:44:49.519Z,97209.06
2018-03-24T05:47:19.363Z,97204.35
2018-03-24T05:49:49.212Z,97210.91
2018-03-24T05:52:19.040Z,97213.97
2018-03-24T05:54:48.922Z,97222.66
2018-03-24T05:57:18.783Z,97220.55
2018-03-24T05:59:48.684Z,97215.53
2018-03-24T06:02:18.630Z,97217.26
2018-03-24T06:04:48.482Z,97223.77
2018-03-24T06:07:18.350Z,97222.05
2018-03-24T06:09:48.206Z,97220.78
2018-03-24T06:12:18.098Z,97221.72
2018-03-24T06:14:48.276Z,97219.92
2018-03-24T06:17:18.149Z,97226.77
2018-03-24T06:19:48.701Z,97221.58
2018-03-24T06:22:18.602Z,97223.08
2018-03-24T06:24:48.458Z,97227.32
2018-03-24T06:27:18.358Z,97230.34
2018-03-24T06:29:48.102Z,97229.03
2018-03-24T06:32:18.365Z,97226.98
2018-03-24T06:34:48.012Z,97221.78
2018-03-24T06:37:18.204Z,97221.37
2018-03-24T06:39:48.318Z,97219.25
2018-03-24T06:42:18.339Z,97213.94
2018-03-24T06:44:48.285Z,97218.09
2018-03-24T06:47:18.255Z,97219.11
2018-03-24T06:49:48.460Z,97222.00
2018-03-24T06:52:18.452Z,97221.94
2018-03-24T06:54:48.386Z,97230.36
2018-03-24T06:57:18.307Z,97219.88
2018-03-24T06:59:48.183Z,97218.91
2018-03-24T07:02:19.594Z,97221.75
2018-03-24T07:04:50.909Z,97221.05
2018-03-24T07:07:21.762Z,97217.45
2018-03-24T07:09:52.324Z,97221.80
2018-03-24T07:12:22.241Z,97226.52
2018-03-24T07:14:52.107Z,97225.70
2018-03-24T07:17:21.956Z,97227.45
2018-03-24T07:19:51.889Z,97224.77
2018-03-24T07:22:21.773Z,97230.19
2018-03-24T07:24:51.731Z,97233.33
2018-03-24T07:27:21.995Z,97221.69
2018-03-24T07:29:51.872Z,97227.73
2018-03-24T07:32:21.743Z,97224.82
2018-03-24T07:34:51.579Z,97224.01
2018-03-24T07:37:21.468Z,97236.09
2018-03-24T07:39:51.322Z,97224.89
2018-03-24T07:42:21.161Z,97232.41
2018-03-24T07:44:51.023Z,97236.22
2018-03-24T07:47:20.899Z,97232.17
2018-03-24T07:49:50.702Z,97229.38
2018-03-24T07:52:20.499Z,97236.53
2018-03-24T07:54:50.301Z,97232.86
2018-03-24T07:57:20.139Z,97236.42
2018-03-24T07:59:50.036Z,97235.09
2018-03-24T08:02:20.175Z,97231.66
2018-03-24T08:04:50.056Z,97235.53
2018-03-24T08:07:19.866Z,97236.59
2018-03-24T08:09:49.726Z,97233.84
2018-03-24T08:12:19.555Z,97241.66
2018-03-24T08:14:49.434Z,97240.51
2018-03-24T08:17:19.249Z,97235.70
2018-03-24T08:19:49.093Z,97233.73
2018-03-24T08:22:19.107Z,97227.66
2018-03-24T08:24:49.051Z,97220.32
2018-03-24T08:27:19.141Z,97224.57
2018-03-24T08:29:49.020Z,97224.52
2018-03-24T08:32:28.115Z,97229.18
2018-03-24T08:34:58.869Z,97228.64
2018-03-24T08:37:30.010Z,97223.09
2018-03-24T08:40:00.617Z,97228.31
2018-03-24T08:42:31.595Z,97226.94
2018-03-24T08:45:02.183Z,97224.59
2018-03-24T08:47:32.692Z,97232.13
2018-03-24T08:50:03.345Z,97228.22
2018-03-24T08:52:33.938Z,97226.98
2018-03-24T08:55:04.454Z,97220.38
2018-03-24T08:57:35.135Z,97225.80
2018-03-24T09:00:05.383Z,97227.61
2018-03-24T09:02:35.585Z,97227.30
2018-03-24T09:05:05.592Z,97222.16
2018-03-24T09:07:36.179Z,97218.80
2018-03-24T09:10:06.590Z,97226.08
2018-03-24T09:12:37.161Z,97220.77
2018-03-24T09:15:07.853Z,97223.14
2018-03-24T09:17:38.536Z,97220.51
2018-03-24T09:20:08.995Z,97214.97
2018-03-24T09:22:38.977Z,97211.59
2018-03-24T09:25:08.954Z,97214.16
2018-03-24T09:27:38.542Z,97203.70
2018-03-24T09:30:08.113Z,97207.97
2018-03-24T09:32:37.719Z,97213.37
2018-03-24T09:35:07.217Z,97205.56
2018-03-24T09:37:36.763Z,97202.53
2018-03-24T09:40:06.396Z,97200.15
2018-03-24T09:42:35.905Z,97195.76
2018-03-24T09:45:05.254Z,97205.98
2018-03-24T09:47:34.797Z,97201.48
2018-03-24T09:50:04.322Z,97200.42
2018-03-24T09:52:34.069Z,97200.94
2018-03-24T09:55:03.618Z,97198.33
2018-03-24T09:57:33.128Z,97199.02
2018-03-24T10:00:02.812Z,97196.55
2018-03-24T10:02:32.794Z,97203.46
2018-03-24T10:05:02.123Z,97194.09
2018-03-24T10:07:31.684Z,97204.27
2018-03-24T10:10:01.460Z,97201.66
2018-03-24T10:12:31.072Z,97205.98
2018-03-24T10:15:00.845Z,97198.83
2018-03-24T10:17:30.626Z,97204.55
2018-03-24T10:20:00.349Z,97202.45
2018-03-24T10:25:35.157Z,97193.78
2018-03-24T10:28:05.703Z,97203.20
2018-03-24T10:30:35.552Z,97193.72
2018-03-24T10:33:05.408Z,97180.91
2018-03-24T10:35:35.338Z,97181.44
2018-03-24T10:38:04.850Z,97190.70
2018-03-24T10:40:38.516Z,97180.03
2018-03-24T10:43:13.706Z,97174.16
2018-03-24T10:45:43.329Z,97182.19
2018-03-24T10:48:13.203Z,97167.45
2018-03-24T10:50:43.286Z,97175.69
2018-03-24T10:53:13.072Z,97176.30
2018-03-24T10:55:46.768Z,97176.45
2018-03-24T10:58:17.018Z,97179.00
2018-03-24T11:00:52.381Z,97186.66
2018-03-24T11:03:21.932Z,97173.69
2018-03-24T11:05:51.496Z,97178.62
2018-03-24T11:08:21.045Z,97169.58
2018-03-24T11:10:50.654Z,97160.14
2018-03-24T11:13:20.168Z,97162.20
2018-03-24T11:15:49.696Z,97159.65
2018-03-24T11:18:19.257Z,97165.25
2018-03-24T11:20:49.102Z,97155.84
2018-03-24T11:23:18.427Z,97156.11
2018-03-24T11:25:48.016Z,97148.34
2018-03-24T11:28:17.508Z,97140.89
2018-03-24T11:30:47.052Z,97140.21
2018-03-24T11:33:16.362Z,97150.83
2018-03-24T11:35:46.790Z,97149.68
2018-03-24T11:38:16.555Z,97145.47
2018-03-24T11:40:46.088Z,97164.27
2018-03-24T11:43:15.714Z,97157.14
2018-03-24T11:45:45.857Z,97150.59
2018-03-24T11:48:15.397Z,97139.05
2018-03-24T11:50:44.930Z,97134.20
2018-03-24T11:53:14.583Z,97135.19
2018-03-24T11:55:44.995Z,97145.55
2018-03-24T11:58:15.475Z,97140.86
2018-03-24T12:00:45.051Z,97121.61
2018-03-24T12:03:14.560Z,97122.79
2018-03-24T12:05:44.097Z,97117.66
2018-03-24T12:08:13.605Z,97125.91
2018-03-24T12:10:43.105Z,97129.98
2018-03-24T12:13:12.680Z,97119.47
2018-03-24T12:15:42.191Z,97115.13
2018-03-24T12:18:11.694Z,97119.39
2018-03-24T12:20:41.245Z,97107.13
2018-03-24T12:23:10.766Z,97114.46
2018-03-24T12:25:40.297Z,97113.37
2018-03-24T12:28:10.099Z,97109.36
2018-03-24T12:30:39.668Z,97108.48
2018-03-24T12:33:09.283Z,97110.42
2018-03-24T12:35:38.804Z,97108.71
2018-03-24T12:38:08.389Z,97100.97
2018-03-24T12:40:37.972Z,97099.10
2018-03-24T12:43:07.521Z,97106.61
2018-03-24T12:45:37.213Z,97100.70
2018-03-24T12:48:06.731Z,97105.13
2018-03-24T12:50:36.268Z,97092.77
2018-03-24T12:53:05.814Z,97104.42
2018-03-24T12:55:35.318Z,97089.06
2018-03-24T12:58:05.429Z,97101.23
2018-03-24T13:00:34.945Z,97104.41
2018-03-24T13:03:04.865Z,97093.93
2018-03-24T13:05:34.499Z,97091.84
2018-03-24T13:08:04.024Z,97091.66
2018-03-24T13:10:34.064Z,97093.48
2018-03-24T13:13:03.592Z,97084.31
2018-03-24T13:15:33.146Z,97081.17
2018-03-24T13:18:02.659Z,97069.14
2018-03-24T13:20:31.897Z,97083.77
2018-03-24T13:23:01.433Z,97092.34
2018-03-24T13:25:30.943Z,97090.00
2018-03-24T13:28:00.472Z,97085.73
2018-03-24T13:30:30.021Z,97078.59
2018-03-24T13:32:59.550Z,97078.91
2018-03-24T13:35:29.052Z,97079.31
2018-03-24T13:37:58.661Z,97075.52
2018-03-24T13:40:28.163Z,97073.29
2018-03-24T13:42:57.745Z,97084.09
2018-03-24T13:45:27.248Z,97073.11
2018-03-24T13:47:56.816Z,97076.14
2018-03-24T13:50:26.400Z,97074.48
2018-03-24T13:52:55.945Z,97064.70
2018-03-24T13:55:25.484Z,97069.73
2018-03-24T13:57:55.089Z,97078.88
2018-03-24T14:00:24.611Z,97072.53
2018-03-24T14:02:54.149Z,97070.44
2018-03-24T14:05:23.673Z,97077.45
2018-03-24T14:07:53.199Z,97073.38
2018-03-24T14:10:22.702Z,97072.03
2018-03-24T14:12:52.271Z,97075.55
2018-03-24T14:15:21.597Z,97068.66
2018-03-24T14:17:51.117Z,97077.43
2018-03-24T14:20:20.635Z,97077.89
2018-03-24T14:22:49.977Z,97064.93
2018-03-24T14:25:19.484Z,97063.77
2018-03-24T14:27:49.025Z,97075.56
2018-03-24T14:30:18.559Z,97077.40
2018-03-24T14:32:52.120Z,97074.79
2018-03-24T14:35:21.642Z,97064.13
2018-03-24T14:37:51.152Z,97065.74
2018-03-24T14:40:20.679Z,97064.64
2018-03-24T14:42:50.526Z,97068.43
2018-03-24T14:45:20.364Z,97060.83
2018-03-24T14:47:50.180Z,97064.67
2018-03-24T14:50:20.027Z,97063.62
2018-03-24T14:52:49.844Z,97062.11
2018-03-24T14:55:19.637Z,97058.38
2018-03-24T14:57:49.644Z,97059.48
2018-03-24T15:00:19.739Z,97053.14
2018-03-24T15:02:49.603Z,97050.63
2018-03-24T15:05:19.458Z,97062.38
2018-03-24T15:07:49.291Z,97058.31
2018-03-24T15:10:19.295Z,97054.41
2018-03-24T15:12:49.182Z,97049.66
2018-03-24T15:15:19.041Z,97049.84
2018-03-24T15:17:48.844Z,97048.14
2018-03-24T15:20:18.636Z,97048.94
2018-03-24T15:22:48.449Z,97048.69
2018-03-24T15:25:18.016Z,97048.95
2018-03-24T15:27:47.881Z,97053.55
2018-03-24T15:30:28.762Z,97052.81
2018-03-24T15:33:09.486Z,97047.59
2018-03-24T15:35:38.720Z,97061.70
2018-03-24T15:38:08.270Z,97053.89
2018-03-24T15:40:38.061Z,97057.11
2018-03-24T15:43:07.980Z,97061.95
2018-03-24T15:45:41.804Z,97061.20
2018-03-24T15:48:11.798Z,97059.73
2018-03-24T15:50:41.650Z,97063.95
2018-03-24T15:53:11.504Z,97063.72
2018-03-24T15:55:41.150Z,97065.00
2018-03-24T15:58:10.849Z,97075.85
2018-03-24T16:00:41.505Z,97064.32
2018-03-24T16:03:11.353Z,97068.00
2018-03-24T16:05:41.168Z,97064.17
2018-03-24T16:08:14.791Z,97064.17
2018-03-24T16:10:44.596Z,97071.75
2018-03-24T16:13:14.397Z,97068.08
2018-03-24T16:15:44.287Z,97070.46
2018-03-24T16:18:14.212Z,97076.11
2018-03-24T16:20:43.815Z,97074.73
2018-03-24T16:23:13.603Z,97065.84
2018-03-24T16:25:43.412Z,97071.70
2018-03-24T16:28:13.242Z,97074.61
2018-03-24T16:30:43.037Z,97077.93
2018-03-24T16:33:12.864Z,97078.34
2018-03-24T16:35:42.758Z,97080.12
2018-03-24T16:38:12.562Z,97082.31
2018-03-24T16:40:42.934Z,97088.94
2018-03-24T16:43:12.840Z,97087.19
2018-03-24T16:45:42.658Z,97085.50
2018-03-24T16:48:17.390Z,97089.34
2018-03-24T16:50:55.464Z,97096.69
2018-03-24T16:53:27.298Z,97089.10
2018-03-24T16:55:58.580Z,97088.25
2018-03-24T16:58:28.585Z,97095.98
2018-03-24T17:00:58.695Z,97100.59
2018-03-24T17:03:28.610Z,97100.92
2018-03-24T17:05:58.466Z,97095.96
2018-03-24T17:08:28.388Z,97094.28
2018-03-24T17:10:58.587Z,97098.11
2018-03-24T17:13:28.553Z,97095.03
2018-03-24T17:15:58.432Z,97097.43
2018-03-24T17:18:28.280Z,97105.02
2018-03-24T17:20:58.069Z,97102.41
2018-03-24T17:23:27.884Z,97109.41
2018-03-24T17:25:57.753Z,97103.41
2018-03-24T17:28:27.630Z,97107.27
2018-03-24T17:30:58.229Z,97105.27
2018-03-24T17:33:28.018Z,97107.95
2018-03-24T17:35:57.836Z,97103.28
2018-03-24T17:38:27.682Z,97111.05
2018-03-24T17:40:57.260Z,97114.09
2018-03-24T17:43:27.066Z,97115.28
2018-03-24T17:45:56.876Z,97117.14
2018-03-24T17:48:26.692Z,97119.37
2018-03-24T17:50:56.328Z,97121.74
2018-03-24T17:53:26.129Z,97117.09
2018-03-24T17:55:55.957Z,97127.31
2018-03-24T17:58:26.229Z,97133.04
2018-03-24T18:00:56.122Z,97135.19
2018-03-24T18:03:25.930Z,97137.84
2018-03-24T18:05:55.735Z,97140.33
2018-03-24T18:08:26.340Z,97136.06
2018-03-24T18:10:56.176Z,97141.32
2018-03-24T18:13:26.229Z,97141.67
2018-03-24T18:15:56.033Z,97138.20
2018-03-24T18:18:25.833Z,97141.16
2018-03-24T18:20:55.673Z,97149.15
2018-03-24T18:23:26.199Z,97149.19
2018-03-24T18:25:56.520Z,97146.33
2018-03-24T18:28:26.406Z,97149.38
2018-03-24T18:30:56.897Z,97150.45
2018-03-24T18:33:27.118Z,97149.05
2018-03-24T18:35:58.146Z,97157.69
2018-03-24T18:38:28.173Z,97165.14
2018-03-24T18:40:57.995Z,97166.31
2018-03-24T18:43:32.540Z,97170.47
2018-03-24T18:46:02.701Z,97172.50
2018-03-24T18:48:32.488Z,97170.98
2018-03-24T18:51:02.296Z,97176.91
2018-03-24T18:53:32.122Z,97180.38
2018-03-24T18:56:02.182Z,97181.50
2018-03-24T18:58:31.993Z,97179.64
2018-03-24T19:01:01.798Z,97179.55
2018-03-24T19:03:31.648Z,97184.30
2018-03-24T19:06:01.620Z,97184.72
2018-03-24T19:08:31.160Z,97186.65
2018-03-24T19:11:00.971Z,97186.13
2018-03-24T19:13:30.817Z,97188.23
2018-03-24T19:16:00.904Z,97191.25
2018-03-24T19:18:30.701Z,97192.48
2018-03-24T19:21:00.516Z,97192.90
2018-03-24T19:23:30.344Z,97199.05
2018-03-24T19:26:00.613Z,97198.17
2018-03-24T19:28:30.422Z,97195.55
2018-03-24T19:31:00.357Z,97197.20
2018-03-24T19:33:30.191Z,97200.25
2018-03-24T19:35:59.996Z,97202.20
2018-03-24T19:38:29.819Z,97201.02
2018-03-24T19:41:00.428Z,97209.01
2018-03-24T19:43:30.232Z,97208.98
2018-03-24T19:46:00.750Z,97214.27
2018-03-24T19:48:30.638Z,97207.50
2018-03-24T19:51:00.475Z,97215.05
2018-03-24T19:53:30.479Z,97215.56
2018-03-24T19:56:00.275Z,97211.57
2018-03-24T19:58:30.091Z,97215.19
2018-03-24T20:00:59.984Z,97212.94
2018-03-24T20:03:30.493Z,97217.95
2018-03-24T20:06:00.325Z,97218.95
2018-03-24T20:08:30.774Z,97217.08
2018-03-24T20:11:00.573Z,97223.19
2018-03-24T20:13:30.401Z,97223.31
2018-03-24T20:16:00.733Z,97228.32
2018-03-24T20:18:35.879Z,97231.80
2018-03-24T20:21:06.104Z,97231.84
2018-03-24T20:23:36.652Z,97230.84
2018-03-24T20:26:07.188Z,97236.05
2018-03-24T20:28:37.006Z,97236.12
2018-03-24T20:31:06.796Z,97235.16
2018-03-24T20:33:36.593Z,97237.52
2018-03-24T20:36:06.623Z,97245.13
2018-03-24T20:38:36.427Z,97242.37
2018-03-24T20:41:06.289Z,97248.41
2018-03-24T20:43:36.104Z,97251.64
2018-03-24T20:46:05.943Z,97255.38
2018-03-24T20:48:35.732Z,97261.22
2018-03-24T20:51:05.612Z,97256.91
2018-03-24T20:53:35.311Z,97258.27
2018-03-24T20:56:05.102Z,97262.70
2018-03-24T20:58:34.934Z,97257.55
2018-03-24T21:01:04.732Z,97266.28
2018-03-24T21:03:34.652Z,97263.05
2018-03-24T21:06:04.607Z,97262.08
2018-03-24T21:08:35.150Z,97264.86
2018-03-24T21:11:05.653Z,97268.66
2018-03-24T21:13:36.160Z,97269.47
2018-03-24T21:16:06.382Z,97271.16
2018-03-24T21:18:42.122Z,97266.69
2018-03-24T21:21:12.183Z,97275.21
2018-03-24T21:23:42.018Z,97273.06
2018-03-24T21:26:11.950Z,97271.48
2018-03-24T21:28:41.855Z,97274.20
2018-03-24T21:31:11.765Z,97276.41
2018-03-24T21:33:42.191Z,97278.70
2018-03-24T21:36:12.140Z,97279.64
2018-03-24T21:38:42.108Z,97278.09
2018-03-24T21:41:11.987Z,97276.82
2018-03-24T21:43:42.433Z,97284.61
2018-03-24T21:46:12.647Z,97282.78
2018-03-24T21:48:42.498Z,97278.54
2018-03-24T21:51:12.405Z,97284.73
2018-03-24T21:53:42.226Z,97279.23
2018-03-24T21:56:12.233Z,97289.13
2018-03-24T21:58:42.182Z,97281.23
2018-03-24T22:01:12.581Z,97285.20
2018-03-24T22:03:42.536Z,97288.06
2018-03-24T22:06:12.362Z,97288.55
2018-03-24T22:08:42.236Z,97269.77
2018-03-24T22:11:12.067Z,97288.64
2018-03-24T22:13:42.036Z,97284.99
2018-03-24T22:16:11.957Z,97287.19
2018-03-24T22:18:41.612Z,97283.08
2018-03-24T22:21:11.421Z,97285.28
2018-03-24T22:23:42.349Z,97285.73
2018-03-24T22:26:12.786Z,97287.63
2018-03-24T22:28:42.860Z,97287.52
2018-03-24T22:31:12.802Z,97292.55
2018-03-24T22:33:43.195Z,97287.16
2018-03-24T22:36:13.150Z,97284.99
2018-03-24T22:38:42.984Z,97278.72
2018-03-24T22:41:12.911Z,97278.23
2018-03-24T22:43:42.802Z,97278.92
2018-03-24T22:46:12.695Z,97270.91
2018-03-24T22:48:42.578Z,97281.78
2018-03-24T22:51:12.590Z,97275.42
2018-03-24T22:53:42.609Z,97277.75
2018-03-24T22:56:12.515Z,97274.90
2018-03-24T22:58:42.357Z,97280.52
2018-03-24T23:01:12.315Z,97281.30
2018-03-24T23:03:42.328Z,97276.25
2018-03-24T23:06:12.890Z,97273.61
2018-03-24T23:08:42.874Z,97276.67
2018-03-24T23:11:13.324Z,97282.60
2018-03-24T23:13:43.150Z,97283.88
2018-03-24T23:16:12.729Z,97277.08
2018-03-24T23:18:42.669Z,97278.25
2018-03-24T23:21:12.578Z,97283.31
2018-03-24T23:23:42.493Z,97276.36
2018-03-24T23:26:12.418Z,97275.98
2018-03-24T23:28:42.270Z,97273.32
2018-03-24T23:31:12.134Z,97275.02
2018-03-24T23:33:42.003Z,97275.07
2018-03-24T23:36:11.881Z,97265.98
2018-03-24T23:38:41.696Z,97276.53
2018-03-24T23:41:11.833Z,97274.82
2018-03-24T23:43:41.681Z,97280.96
2018-03-24T23:46:11.373Z,97273.52
2018-03-24T23:48:41.257Z,97278.48
2018-03-24T23:51:11.968Z,97279.04
2018-03-24T23:53:41.781Z,97281.97
2018-03-24T23:56:11.676Z,97282.61
2018-03-24T23:58:41.649Z,97281.27
